| DS18B20 | SHTC3 | ||||||
|---|---|---|---|---|---|---|---|
| ID | Date d/m/Y & Time | data1 สูง | data2 ต่ำ | data3 นอก | temp pcb | hum pcb | Time |
| 2149 | 13/03/2026 17:43:17 | 29.6  | 29.7  | 28.9  | 29.6  | 70.1  | 17:43 |
| 2148 | 13/03/2026 17:38:35 | 29.7  | 29.7  | 29.0  | 29.5  | 70.0  | 17:38 |
| 2147 | 13/03/2026 17:33:53 | 29.7  | 29.8  | 28.9  | 29.6  | 70.0  | 17:33 |
| 2146 | 13/03/2026 17:29:13 | 29.8  | 29.8  | 28.9  | 29.7  | 69.9  | 17:29 |
| 2145 | 13/03/2026 17:24:29 | 29.8  | 29.8  | 29.1  | 29.7  | 69.9  | 17:24 |
| 2144 | 13/03/2026 17:19:48 | 29.8  | 29.8  | 29.1  | 29.6  | 69.8  | 17:19 |
| 2143 | 13/03/2026 17:15:07 | 29.8  | 29.8  | 28.9  | 29.7  | 69.7  | 17:15 |
| 2142 | 13/03/2026 17:10:25 | 29.9  | 29.8  | 28.9  | 29.9  | 69.9  | 17:10 |
| 2141 | 13/03/2026 17:05:44 | 29.9  | 29.9  | 29.0  | 29.8  | 69.6  | 17:05 |
| 2140 | 13/03/2026 17:01:03 | 29.9  | 29.9  | 29.2  | 29.8  | 69.5  | 17:01 |
| 2139 | 13/03/2026 16:56:20 | 29.9  | 29.9  | 29.2  | 29.8  | 69.4  | 16:56 |
| 2138 | 13/03/2026 16:51:38 | 29.9  | 29.9  | 29.2  | 30.0  | 69.5  | 16:51 |
| 2137 | 13/03/2026 16:46:56 | 30.0  | 30.0  | 29.2  | 29.9  | 69.2  | 16:46 |
| 2136 | 13/03/2026 16:42:14 | 30.1  | 29.9  | 29.4  | 29.9  | 69.2  | 16:42 |
| 2135 | 13/03/2026 16:37:32 | 30.1  | 30.0  | 29.4  | 29.9  | 69.2  | 16:37 |
| 2134 | 13/03/2026 16:32:51 | 30.1  | 30.0  | 29.5  | 29.9  | 69.1  | 16:32 |
| 2133 | 13/03/2026 16:28:08 | 30.1  | 30.0  | 29.5  | 30.0  | 69.0  | 16:28 |
| 2132 | 13/03/2026 16:23:27 | 30.1  | 30.0  | 29.4  | 30.1  | 69.1  | 16:23 |
| 2131 | 13/03/2026 16:18:45 | 30.2  | 30.1  | 29.5  | 30.1  | 68.9  | 16:18 |
| 2130 | 13/03/2026 16:14:02 | 30.2  | 30.1  | 29.4  | 30.1  | 69.1  | 16:14 |
| 2129 | 13/03/2026 16:09:21 | 30.2  | 30.1  | 29.4  | 30.0  | 68.9  | 16:09 |
| 2128 | 13/03/2026 16:04:39 | 30.3  | 30.1  | 29.9  | 30.1  | 69.0  | 16:04 |
| 2127 | 13/03/2026 15:59:57 | 30.4  | 30.1  | 29.7  | 30.0  | 68.8  | 15:59 |
| 2126 | 13/03/2026 15:55:15 | 30.4  | 30.1  | 29.8  | 30.2  | 68.8  | 15:55 |